YXAL weather

Albury Base Hospital Helipad
Albury, New South Wales, Australia

Public forecast

Using degrees Celsius for public forecast. Weather courtesy of forecast.io.

METAR (pilot weather report)

Closest report is Albury Airport, 1.2 nm (2.2 km) NE. Retrieved 2019/03/27 02:00 UTC (2 minutes ago):

YMAY 270200Z AUTO 03006KT 9999 // NCD 21/07 Q1023

TAF (pilot weather forecast)

Closest forecast is Wangaratta Airport, 36.7 nm (67.9 km) WSW. Retrieved 2019/03/27 02:03 UTC (0 seconds ago):

TAF YWGT 270032Z 2702/2714 VRB05KT CAVOK